createdAt,value
2022-08-29T00:02:55.787Z,99.90
2022-08-29T00:06:01.292Z,99.90
2022-08-29T00:09:06.775Z,99.90
2022-08-29T00:12:16.236Z,99.90
2022-08-29T00:15:22.555Z,99.90
2022-08-29T00:18:28.530Z,99.90
2022-08-29T00:21:34.013Z,99.90
2022-08-29T00:24:39.397Z,99.90
2022-08-29T00:27:49.760Z,99.90
2022-08-29T00:30:55.301Z,99.90
2022-08-29T00:34:00.953Z,99.90
2022-08-29T00:37:06.389Z,99.90
2022-08-29T00:40:19.988Z,99.90
2022-08-29T00:43:29.878Z,99.90
2022-08-29T00:46:54.460Z,99.90
2022-08-29T00:49:59.998Z,99.90
2022-08-29T00:53:06.609Z,99.90
2022-08-29T00:56:16.070Z,99.90
2022-08-29T00:59:26.143Z,99.90
2022-08-29T01:02:36.232Z,99.90
2022-08-29T01:05:46.301Z,99.90
2022-08-29T01:08:57.605Z,99.90
2022-08-29T01:12:19.376Z,99.90
2022-08-29T01:15:26.528Z,99.90
2022-08-29T01:18:33.527Z,99.90
2022-08-29T01:21:42.730Z,99.90
2022-08-29T01:24:52.682Z,99.90
2022-08-29T01:28:04.947Z,99.90
2022-08-29T01:31:13.295Z,99.90
2022-08-29T01:34:20.997Z,99.90
2022-08-29T01:37:30.914Z,99.90
2022-08-29T01:40:38.363Z,99.90
2022-08-29T01:43:46.794Z,99.90
2022-08-29T01:47:00.263Z,99.90
2022-08-29T01:50:16.087Z,99.90
2022-08-29T01:53:21.785Z,99.90
2022-08-29T01:56:32.278Z,99.90
2022-08-29T01:59:38.194Z,99.90
2022-08-29T02:02:44.619Z,99.90
2022-08-29T02:05:49.991Z,99.90
2022-08-29T02:08:55.842Z,99.90
2022-08-29T02:12:07.132Z,99.90
2022-08-29T02:15:14.581Z,99.90
2022-08-29T02:18:20.030Z,99.90
2022-08-29T02:21:28.487Z,99.90
2022-08-29T02:24:34.614Z,99.90
2022-08-29T02:27:42.523Z,99.90
2022-08-29T02:30:56.583Z,99.90
2022-08-29T02:34:02.258Z,99.90
2022-08-29T02:37:08.388Z,99.90
2022-08-29T02:40:14.459Z,99.90
2022-08-29T02:43:21.833Z,99.90
2022-08-29T02:46:27.968Z,99.90
2022-08-29T02:49:33.286Z,99.90
2022-08-29T02:52:41.031Z,99.90
2022-08-29T02:55:47.881Z,99.90
2022-08-29T02:58:54.498Z,99.90
2022-08-29T03:02:00.033Z,99.90
2022-08-29T03:05:07.529Z,99.90
2022-08-29T03:08:16.248Z,99.90
2022-08-29T03:11:21.668Z,99.90
2022-08-29T03:14:28.386Z,99.90
2022-08-29T03:17:34.485Z,99.90
2022-08-29T03:20:40.093Z,99.90
2022-08-29T03:23:45.692Z,99.90
2022-08-29T03:26:56.227Z,99.90
2022-08-29T03:30:04.659Z,99.90
2022-08-29T03:33:12.518Z,99.90
2022-08-29T03:36:18.253Z,99.90
2022-08-29T03:39:23.723Z,99.90
2022-08-29T03:42:30.366Z,99.90
2022-08-29T03:45:37.222Z,99.90
2022-08-29T03:48:42.882Z,99.90
2022-08-29T03:51:50.069Z,99.90
2022-08-29T03:54:55.978Z,99.90
2022-08-29T03:58:02.198Z,99.90
2022-08-29T04:01:08.793Z,99.90
2022-08-29T04:04:36.464Z,99.90
2022-08-29T04:07:46.409Z,99.90
2022-08-29T04:10:51.768Z,99.90
2022-08-29T04:13:57.126Z,99.90
2022-08-29T04:17:04.727Z,99.90
2022-08-29T04:20:12.929Z,99.90
2022-08-29T04:23:18.893Z,99.90
2022-08-29T04:26:36.381Z,99.90
2022-08-29T04:29:43.632Z,99.90
2022-08-29T04:32:50.518Z,99.90
2022-08-29T04:35:55.906Z,99.90
2022-08-29T04:39:01.130Z,99.90
2022-08-29T04:42:06.736Z,99.90
2022-08-29T04:45:15.912Z,99.90
2022-08-29T04:48:22.569Z,99.90
2022-08-29T04:51:28.729Z,99.90
2022-08-29T04:54:34.080Z,99.90
2022-08-29T04:57:40.740Z,99.90
2022-08-29T05:00:47.935Z,99.90
2022-08-29T05:03:55.320Z,99.90
2022-08-29T05:07:00.605Z,99.90
2022-08-29T05:10:09.626Z,99.90
2022-08-29T05:13:17.277Z,99.90
2022-08-29T05:16:22.683Z,99.90
2022-08-29T05:19:29.397Z,99.90
2022-08-29T05:22:40.586Z,99.90
2022-08-29T05:25:46.822Z,99.90
2022-08-29T05:28:52.218Z,99.90
2022-08-29T05:31:57.439Z,99.90
2022-08-29T05:35:04.707Z,99.90
2022-08-29T05:38:11.475Z,99.90
2022-08-29T05:41:16.910Z,99.90
2022-08-29T05:44:22.596Z,99.90
2022-08-29T05:47:28.033Z,99.90
2022-08-29T05:50:38.162Z,99.90
2022-08-29T05:53:43.597Z,99.90
2022-08-29T05:56:49.104Z,99.90
2022-08-29T05:59:56.777Z,99.90
2022-08-29T06:03:02.313Z,99.90
2022-08-29T06:06:09.781Z,99.90
2022-08-29T06:09:15.667Z,99.90
2022-08-29T06:12:21.458Z,99.90
2022-08-29T06:15:29.903Z,99.90
2022-08-29T06:18:36.048Z,99.90
2022-08-29T06:21:43.266Z,99.90
2022-08-29T06:24:49.281Z,99.90
2022-08-29T06:27:55.756Z,99.90
2022-08-29T06:31:08.288Z,99.90
2022-08-29T06:34:14.162Z,99.90
2022-08-29T06:37:20.982Z,99.90
2022-08-29T06:40:27.434Z,99.90
2022-08-29T06:43:33.033Z,99.90
2022-08-29T06:46:41.758Z,99.90
2022-08-29T06:49:47.730Z,99.90
2022-08-29T06:52:55.695Z,99.90
2022-08-29T06:56:06.640Z,99.90
2022-08-29T06:59:16.898Z,99.90
2022-08-29T07:02:22.834Z,99.90
2022-08-29T07:05:28.193Z,99.90
2022-08-29T07:08:35.575Z,99.90
2022-08-29T07:11:42.496Z,99.90
2022-08-29T07:14:47.992Z,99.90
2022-08-29T07:17:59.865Z,99.90
2022-08-29T07:21:07.931Z,99.90
2022-08-29T07:24:14.856Z,99.90
2022-08-29T07:27:20.431Z,99.90
2022-08-29T07:30:26.461Z,99.90
2022-08-29T07:33:32.059Z,99.90
2022-08-29T07:36:37.782Z,99.90
2022-08-29T07:39:44.498Z,99.90
2022-08-29T07:42:51.018Z,99.90
2022-08-29T07:45:56.758Z,99.90
2022-08-29T07:49:02.762Z,99.90
2022-08-29T07:52:08.257Z,99.90
2022-08-29T07:55:15.401Z,99.90
2022-08-29T07:58:20.762Z,99.90
2022-08-29T08:01:26.325Z,99.90
2022-08-29T08:04:32.075Z,99.90
2022-08-29T08:07:40.190Z,99.90
2022-08-29T08:10:51.894Z,99.90
2022-08-29T08:13:58.601Z,99.90
2022-08-29T08:17:04.548Z,99.90
2022-08-29T08:20:12.387Z,99.90
2022-08-29T08:23:18.358Z,99.90
2022-08-29T08:26:25.729Z,99.90
2022-08-29T08:29:31.600Z,99.90
2022-08-29T08:32:37.486Z,99.90
2022-08-29T08:35:46.844Z,99.90
2022-08-29T08:38:53.938Z,99.90
2022-08-29T08:42:07.183Z,99.90
2022-08-29T08:45:14.762Z,99.90
2022-08-29T08:48:23.466Z,99.90
2022-08-29T08:51:33.595Z,99.90
2022-08-29T08:54:47.786Z,99.90
2022-08-29T08:58:02.584Z,99.90
2022-08-29T09:01:19.171Z,99.90
2022-08-29T09:04:42.293Z,99.90
2022-08-29T09:07:54.639Z,99.90
2022-08-29T09:11:05.448Z,99.90
2022-08-29T09:14:28.497Z,99.90
2022-08-29T09:17:42.414Z,99.90
2022-08-29T09:20:48.098Z,99.90
2022-08-29T09:23:59.664Z,99.90
2022-08-29T09:27:06.238Z,99.90
2022-08-29T09:30:18.205Z,99.90
2022-08-29T09:33:23.541Z,99.90
2022-08-29T09:36:43.411Z,99.90
2022-08-29T09:40:00.635Z,99.90
2022-08-29T09:43:07.938Z,99.90
2022-08-29T09:46:23.506Z,99.90
2022-08-29T09:49:29.216Z,99.90
2022-08-29T09:52:35.178Z,99.90
2022-08-29T09:55:45.201Z,99.90
2022-08-29T09:59:02.528Z,99.90
2022-08-29T10:02:26.642Z,99.90
2022-08-29T10:05:42.679Z,99.90
2022-08-29T10:09:09.744Z,99.90
2022-08-29T10:12:19.038Z,99.90
2022-08-29T10:15:49.443Z,99.90
2022-08-29T10:19:00.118Z,99.90
2022-08-29T10:22:12.617Z,99.90
2022-08-29T10:25:22.063Z,99.90
2022-08-29T10:28:34.055Z,99.90
2022-08-29T10:31:45.336Z,99.90
2022-08-29T10:35:05.558Z,99.90
2022-08-29T10:38:23.130Z,99.90
2022-08-29T10:41:34.518Z,99.90
2022-08-29T10:44:53.593Z,99.90
2022-08-29T10:48:05.941Z,99.90
2022-08-29T10:51:23.120Z,99.90
2022-08-29T10:54:41.646Z,99.90
2022-08-29T10:57:58.248Z,99.90
2022-08-29T11:01:11.492Z,99.90
2022-08-29T11:04:22.061Z,99.90
2022-08-29T11:07:33.808Z,99.90
2022-08-29T11:10:42.418Z,99.90
2022-08-29T11:13:52.550Z,99.90
2022-08-29T11:16:58.427Z,99.90
2022-08-29T11:20:15.873Z,99.90
2022-08-29T11:23:33.557Z,99.90
2022-08-29T11:26:54.263Z,99.90
2022-08-29T11:30:06.734Z,99.90
2022-08-29T11:33:27.291Z,99.90
2022-08-29T11:36:47.113Z,99.90
2022-08-29T11:40:00.262Z,99.90
2022-08-29T11:43:12.110Z,99.90
2022-08-29T11:46:26.818Z,99.90
2022-08-29T11:49:42.143Z,99.90
2022-08-29T11:52:56.218Z,99.90
2022-08-29T11:56:28.302Z,99.90
2022-08-29T12:00:00.021Z,99.90
2022-08-29T12:03:15.168Z,99.90
2022-08-29T12:07:01.209Z,99.90
2022-08-29T12:10:12.703Z,99.90
2022-08-29T12:14:04.997Z,99.90
2022-08-29T12:17:44.940Z,99.90
2022-08-29T12:20:55.715Z,99.90
2022-08-29T12:24:02.247Z,99.90
2022-08-29T12:27:23.483Z,99.90
2022-08-29T12:30:34.382Z,99.90
2022-08-29T12:33:54.751Z,99.90
2022-08-29T12:37:44.503Z,99.90
2022-08-29T12:41:32.569Z,99.90
2022-08-29T12:44:41.649Z,99.90
2022-08-29T12:47:51.755Z,99.70
2022-08-29T12:50:57.522Z,99.50
2022-08-29T12:54:02.957Z,98.60
2022-08-29T12:57:19.671Z,98.10
2022-08-29T13:00:27.703Z,97.50
2022-08-29T13:03:36.573Z,98.30
2022-08-29T13:06:55.675Z,98.00
2022-08-29T13:10:02.367Z,98.40
2022-08-29T13:13:12.382Z,98.10
2022-08-29T13:16:26.764Z,97.00
2022-08-29T13:19:33.614Z,96.30
2022-08-29T13:22:39.299Z,95.30
2022-08-29T13:25:52.001Z,95.40
2022-08-29T13:28:59.362Z,95.20
2022-08-29T13:32:24.148Z,95.30
2022-08-29T13:35:35.898Z,97.00
2022-08-29T13:38:42.077Z,98.40
2022-08-29T13:41:52.162Z,99.10
2022-08-29T13:45:13.743Z,99.00
2022-08-29T13:48:20.467Z,98.50
2022-08-29T13:51:28.791Z,98.80
2022-08-29T13:54:35.759Z,98.80
2022-08-29T13:57:42.411Z,99.10
2022-08-29T14:00:47.986Z,98.60
2022-08-29T14:03:54.491Z,98.30
2022-08-29T14:07:02.296Z,98.50
2022-08-29T14:10:09.803Z,98.90
2022-08-29T14:13:16.382Z,99.00
2022-08-29T14:16:21.868Z,98.60
2022-08-29T14:19:29.780Z,98.60
2022-08-29T14:22:36.506Z,98.70
2022-08-29T14:25:42.350Z,98.60
2022-08-29T14:28:48.207Z,98.40
2022-08-29T14:31:54.273Z,98.20
2022-08-29T14:35:00.200Z,98.40
2022-08-29T14:38:08.857Z,98.00
2022-08-29T14:41:16.789Z,97.90
2022-08-29T14:44:22.898Z,98.30
2022-08-29T14:47:28.731Z,98.30
2022-08-29T14:50:34.362Z,98.70
2022-08-29T14:53:51.391Z,98.50
2022-08-29T14:57:00.311Z,98.40
2022-08-29T15:00:09.363Z,98.40
2022-08-29T15:03:15.711Z,97.90
2022-08-29T15:06:21.282Z,98.20
2022-08-29T15:09:28.960Z,98.50
2022-08-29T15:12:34.696Z,98.40
2022-08-29T15:15:40.232Z,98.10
2022-08-29T15:22:13.565Z,98.30
2022-08-29T15:25:20.739Z,98.70
2022-08-29T15:28:26.766Z,98.90
2022-08-29T15:31:32.273Z,99.20
2022-08-29T15:34:37.776Z,99.20
2022-08-29T15:37:43.390Z,98.40
2022-08-29T15:40:50.288Z,98.00
2022-08-29T15:43:55.596Z,98.10
2022-08-29T15:47:01.471Z,98.20
2022-08-29T15:50:08.947Z,98.20
2022-08-29T15:53:14.930Z,98.80
2022-08-29T15:56:21.846Z,98.10
2022-08-29T15:59:54.112Z,98.60
2022-08-29T16:02:53.665Z,98.80
2022-08-29T16:05:59.120Z,98.30
2022-08-29T16:09:12.864Z,98.30
2022-08-29T16:12:23.163Z,98.80
2022-08-29T16:15:31.153Z,98.80
2022-08-29T16:18:36.803Z,98.60
2022-08-29T16:21:42.097Z,99.00
2022-08-29T16:24:47.543Z,98.90
2022-08-29T16:27:54.330Z,99.40
2022-08-29T16:31:00.186Z,99.50
2022-08-29T16:34:05.682Z,99.30
2022-08-29T16:37:13.415Z,99.60
2022-08-29T16:40:19.037Z,99.70
2022-08-29T16:43:25.710Z,99.90
2022-08-29T16:46:31.608Z,99.90
2022-08-29T16:49:37.419Z,99.90
2022-08-29T16:52:42.847Z,99.90
2022-08-29T16:55:48.433Z,99.90
2022-08-29T16:59:01.556Z,99.90
2022-08-29T17:02:07.389Z,99.90
2022-08-29T17:05:13.786Z,99.90
2022-08-29T17:08:19.759Z,99.90
2022-08-29T17:11:24.643Z,99.90
2022-08-29T17:14:30.279Z,99.60
2022-08-29T17:17:35.999Z,99.90
2022-08-29T17:20:46.211Z,99.90
2022-08-29T17:23:51.835Z,99.90
2022-08-29T17:26:57.103Z,99.90
2022-08-29T17:30:04.787Z,99.90
2022-08-29T17:33:13.341Z,99.90
2022-08-29T17:36:19.619Z,99.90
2022-08-29T17:39:25.242Z,99.90
2022-08-29T17:42:32.307Z,99.90
2022-08-29T17:45:40.548Z,99.90
2022-08-29T17:48:46.681Z,99.90
2022-08-29T17:51:54.043Z,99.90
2022-08-29T17:55:03.786Z,99.90
2022-08-29T17:58:12.370Z,99.90
2022-08-29T18:01:19.332Z,99.90
2022-08-29T18:04:26.340Z,99.90
2022-08-29T18:07:31.961Z,99.90
2022-08-29T18:10:39.907Z,99.90
2022-08-29T18:13:45.628Z,99.90
2022-08-29T18:16:53.154Z,99.90
2022-08-29T18:19:59.263Z,99.90
2022-08-29T18:23:04.902Z,99.90
2022-08-29T18:26:10.362Z,99.90
2022-08-29T18:29:16.662Z,99.90
2022-08-29T18:32:24.301Z,99.90
2022-08-29T18:35:29.723Z,99.90
2022-08-29T18:38:35.163Z,99.90
2022-08-29T18:41:40.670Z,99.90
2022-08-29T18:44:46.029Z,99.90
2022-08-29T18:47:52.851Z,99.90
2022-08-29T18:50:58.855Z,99.90
2022-08-29T18:54:04.351Z,99.90
2022-08-29T18:57:10.814Z,99.90
2022-08-29T19:00:18.071Z,99.90
2022-08-29T19:03:24.869Z,99.90
2022-08-29T19:06:30.294Z,99.90
2022-08-29T19:09:35.735Z,99.90
2022-08-29T19:12:41.393Z,99.90
2022-08-29T19:15:48.596Z,99.90
2022-08-29T19:18:55.667Z,99.90
2022-08-29T19:21:59.979Z,99.90
2022-08-29T19:25:05.925Z,99.90
2022-08-29T19:28:14.337Z,99.90
2022-08-29T19:31:20.308Z,99.90
2022-08-29T19:34:27.163Z,99.90
2022-08-29T19:37:32.744Z,99.90
2022-08-29T19:40:39.355Z,99.90
2022-08-29T19:43:45.327Z,99.90
2022-08-29T19:46:50.674Z,99.90
2022-08-29T19:49:57.493Z,99.90
2022-08-29T19:53:03.047Z,99.90
2022-08-29T19:56:09.221Z,99.90
2022-08-29T19:59:16.391Z,99.90
2022-08-29T20:02:21.835Z,99.90
2022-08-29T20:05:28.493Z,99.90
2022-08-29T20:08:36.187Z,99.90
2022-08-29T20:11:43.742Z,99.90
2022-08-29T20:14:52.679Z,99.90
2022-08-29T20:17:58.793Z,99.90
2022-08-29T20:21:06.326Z,99.90
2022-08-29T20:24:15.463Z,99.90
2022-08-29T20:27:21.715Z,99.90
2022-08-29T20:30:31.159Z,99.90
2022-08-29T20:33:39.708Z,99.90
2022-08-29T20:37:05.387Z,99.90
2022-08-29T20:40:14.070Z,99.90
2022-08-29T20:43:20.347Z,99.90
2022-08-29T20:46:26.002Z,99.90
2022-08-29T20:49:31.451Z,99.90
2022-08-29T20:52:39.650Z,99.90
2022-08-29T20:55:45.230Z,99.90
2022-08-29T20:58:50.759Z,99.90
2022-08-29T21:01:56.839Z,99.90
2022-08-29T21:05:19.610Z,99.90
2022-08-29T21:08:29.443Z,99.90
2022-08-29T21:11:35.310Z,99.90
2022-08-29T21:14:41.102Z,99.90
2022-08-29T21:17:46.362Z,99.90
2022-08-29T21:20:53.977Z,99.90
2022-08-29T21:24:02.027Z,99.90
2022-08-29T21:27:07.713Z,99.90
2022-08-29T21:30:15.113Z,99.90
2022-08-29T21:33:21.435Z,99.90
2022-08-29T21:36:29.234Z,99.90
2022-08-29T21:39:36.230Z,99.90
2022-08-29T21:42:42.299Z,99.90
2022-08-29T21:45:48.095Z,99.90
2022-08-29T21:48:56.800Z,99.90
2022-08-29T21:52:02.681Z,99.90
2022-08-29T21:55:10.656Z,99.90
2022-08-29T21:58:16.560Z,99.90
2022-08-29T22:01:23.707Z,99.90
2022-08-29T22:04:30.898Z,99.90
2022-08-29T22:07:37.695Z,99.90
2022-08-29T22:10:44.727Z,99.90
2022-08-29T22:13:50.630Z,99.90
2022-08-29T22:16:56.034Z,99.90
2022-08-29T22:20:01.249Z,99.90
2022-08-29T22:23:06.880Z,99.90
2022-08-29T22:26:14.165Z,99.90
2022-08-29T22:29:19.654Z,99.90
2022-08-29T22:32:25.126Z,99.90
2022-08-29T22:35:37.607Z,99.90
2022-08-29T22:38:46.077Z,99.90
2022-08-29T22:41:55.007Z,99.90
2022-08-29T22:45:03.957Z,99.90
2022-08-29T22:48:13.160Z,99.90
2022-08-29T22:51:23.832Z,99.90
2022-08-29T22:54:38.198Z,99.90
2022-08-29T22:57:45.923Z,99.90
2022-08-29T23:00:51.293Z,99.90
2022-08-29T23:03:57.322Z,99.90
2022-08-29T23:07:03.239Z,99.90
2022-08-29T23:10:10.745Z,99.90
2022-08-29T23:13:17.901Z,99.90
2022-08-29T23:16:24.879Z,99.90
2022-08-29T23:19:30.310Z,99.90
2022-08-29T23:22:36.331Z,99.90
2022-08-29T23:25:42.817Z,99.90
2022-08-29T23:28:50.226Z,99.90
2022-08-29T23:31:55.818Z,99.90
2022-08-29T23:35:01.223Z,99.90
2022-08-29T23:38:07.874Z,99.90
2022-08-29T23:41:15.449Z,99.90
2022-08-29T23:44:22.500Z,99.90
2022-08-29T23:47:28.675Z,99.90
2022-08-29T23:50:34.076Z,99.90
2022-08-29T23:53:39.557Z,99.90
2022-08-29T23:56:44.959Z,99.90
